Time;durP1;ratioP1;P1;durP2;ratioP2;P2;SDS_P1;SDS_P2;PMS_P1;PMS_P2;Temp;Humidity;BMP_temperature;BMP_pressure;BME280_temperature;BME280_humidity;BME280_pressure;Samples;Min_cycle;Max_cycle;Signal;HPM_P1;HPM_P2
2021/10/06 00:02:24;;;;;;;18.52;7.57;;;;;;;;;;5057015;28;20017;-85
2021/10/06 00:04:50;;;;;;;19.67;7.50;;;;;;;;;;5058714;28;20300;-84
2021/10/06 00:07:16;;;;;;;24.45;8.18;;;;;;;;;;5050503;28;20358;-85
2021/10/06 00:09:42;;;;;;;21.80;8.38;;;;;;;;;;5030692;28;20311;-85
2021/10/06 00:12:08;;;;;;;26.00;8.50;;;;;;;;;;5038339;28;20365;-84
2021/10/06 00:14:34;;;;;;;24.55;8.55;;;;;;;;;;5038061;28;20029;-84
2021/10/06 00:17:00;;;;;;;26.45;7.93;;;;;;;;;;5038252;28;20057;-84
2021/10/06 00:19:26;;;;;;;21.92;7.00;;;;;;;;;;5020661;28;20033;-85
2021/10/06 00:21:53;;;;;;;23.10;8.43;;;;;;;;;;5038452;28;20033;-85
2021/10/06 00:24:19;;;;;;;22.67;8.15;;;;;;;;;;5054160;28;20036;-85
2021/10/06 00:26:45;;;;;;;21.48;7.85;;;;;;;;;;5041036;28;20112;-86
2021/10/06 00:29:11;;;;;;;22.67;7.82;;;;;;;;;;5038432;28;20025;-85
2021/10/06 00:31:37;;;;;;;14.98;7.47;;;;;;;;;;5038628;28;20021;-86
2021/10/06 00:34:03;;;;;;;25.95;7.80;;;;;;;;;;5041294;28;20021;-86
2021/10/06 00:36:30;;;;;;;27.83;7.38;;;;;;;;;;5038849;28;20030;-85
2021/10/06 00:38:56;;;;;;;17.95;7.88;;;;;;;;;;5049489;28;20049;-85
2021/10/06 00:41:22;;;;;;;24.40;7.45;;;;;;;;;;5055119;28;20024;-86
2021/10/06 00:43:48;;;;;;;22.13;7.78;;;;;;;;;;5057957;28;20106;-88
2021/10/06 00:46:14;;;;;;;21.05;7.32;;;;;;;;;;5058116;28;20116;-87
2021/10/06 00:48:40;;;;;;;23.60;7.60;;;;;;;;;;5056708;28;20037;-87
2021/10/06 00:51:06;;;;;;;19.67;7.22;;;;;;;;;;5051291;28;20062;-84
2021/10/06 00:53:32;;;;;;;15.57;7.90;;;;;;;;;;5050321;28;20131;-84
2021/10/06 00:55:58;;;;;;;21.33;7.20;;;;;;;;;;5045290;28;20165;-84
2021/10/06 00:58:24;;;;;;;20.45;7.35;;;;;;;;;;5055787;28;20017;-84
2021/10/06 01:00:51;;;;;;;22.63;7.60;;;;;;;;;;5044718;28;20088;-85
2021/10/06 01:03:21;;;;;;;18.23;6.68;;;;;;;;;;5037884;28;20026;-85
2021/10/06 01:05:48;;;;;;;21.05;6.90;;;;;;;;;;5051817;28;20021;-84
2021/10/06 01:08:14;;;;;;;25.08;7.10;;;;;;;;;;5035457;28;20030;-84
2021/10/06 01:10:40;;;;;;;21.98;6.53;;;;;;;;;;5035868;28;20029;-86
2021/10/06 01:13:06;;;;;;;12.95;6.75;;;;;;;;;;5051367;28;20021;-86
2021/10/06 01:15:32;;;;;;;21.92;6.75;;;;;;;;;;5057367;28;20029;-87
2021/10/06 01:17:58;;;;;;;27.15;7.68;;;;;;;;;;5057045;28;20028;-87
2021/10/06 01:20:24;;;;;;;17.92;6.72;;;;;;;;;;5057448;28;20060;-86
2021/10/06 01:22:50;;;;;;;23.23;6.80;;;;;;;;;;5057119;28;20434;-86
2021/10/06 01:25:17;;;;;;;17.80;6.53;;;;;;;;;;5057439;28;20075;-87
2021/10/06 01:27:43;;;;;;;15.82;7.07;;;;;;;;;;5057276;28;20028;-87
2021/10/06 01:30:11;;;;;;;16.92;6.65;;;;;;;;;;5056402;28;20021;-87
2021/10/06 01:32:38;;;;;;;15.05;6.45;;;;;;;;;;5057633;28;20100;-86
2021/10/06 01:35:06;;;;;;;22.05;7.18;;;;;;;;;;5038038;28;20025;-85
2021/10/06 01:37:32;;;;;;;24.60;7.05;;;;;;;;;;5037340;28;20029;-87
2021/10/06 01:39:59;;;;;;;17.23;7.40;;;;;;;;;;5037137;28;20041;-85
2021/10/06 01:42:25;;;;;;;17.23;6.70;;;;;;;;;;5053721;28;20101;-86
2021/10/06 01:44:51;;;;;;;19.55;7.43;;;;;;;;;;5040843;28;20025;-88
2021/10/06 01:47:21;;;;;;;19.33;6.95;;;;;;;;;;5036075;28;20034;-87
2021/10/06 01:49:47;;;;;;;24.42;7.47;;;;;;;;;;5037293;28;20090;-87
2021/10/06 01:52:20;;;;;;;18.55;7.43;;;;;;;;;;5037351;28;20049;-86
2021/10/06 01:54:46;;;;;;;22.17;7.47;;;;;;;;;;5044945;28;20049;-86
2021/10/06 01:57:13;;;;;;;15.90;7.50;;;;;;;;;;5039128;28;20051;-87
2021/10/06 01:59:40;;;;;;;22.83;7.13;;;;;;;;;;5049721;28;20109;-84
2021/10/06 02:02:06;;;;;;;15.70;6.75;;;;;;;;;;5036940;28;20029;-84
2021/10/06 02:04:32;;;;;;;18.27;6.88;;;;;;;;;;5054999;28;20071;-85
2021/10/06 02:06:58;;;;;;;20.98;6.82;;;;;;;;;;5048742;28;20030;-85
2021/10/06 02:09:25;;;;;;;27.30;7.30;;;;;;;;;;5052746;28;20044;-86
2021/10/06 02:11:51;;;;;;;18.48;6.78;;;;;;;;;;5032394;28;20029;-85
2021/10/06 02:14:17;;;;;;;19.17;7.05;;;;;;;;;;5046835;28;20067;-85
2021/10/06 02:16:43;;;;;;;22.13;7.80;;;;;;;;;;5039252;28;20017;-85
2021/10/06 02:19:09;;;;;;;19.67;7.13;;;;;;;;;;5055826;28;20024;-85
2021/10/06 02:21:35;;;;;;;19.13;6.65;;;;;;;;;;5056561;28;20402;-85
2021/10/06 02:24:02;;;;;;;25.15;6.68;;;;;;;;;;5056755;28;20031;-85
2021/10/06 02:26:28;;;;;;;13.13;6.50;;;;;;;;;;5055296;28;20037;-85
2021/10/06 02:28:54;;;;;;;22.75;6.93;;;;;;;;;;5057577;28;20025;-86
2021/10/06 02:31:20;;;;;;;21.70;7.00;;;;;;;;;;5059742;28;20103;-87
2021/10/06 02:33:46;;;;;;;27.17;7.38;;;;;;;;;;5059271;28;20033;-86
2021/10/06 02:36:12;;;;;;;15.45;6.63;;;;;;;;;;5060629;28;20025;-86
2021/10/06 02:38:38;;;;;;;19.90;7.40;;;;;;;;;;5040343;28;20096;-87
2021/10/06 02:41:04;;;;;;;12.80;6.22;;;;;;;;;;5040503;28;20030;-87
2021/10/06 02:43:30;;;;;;;19.35;6.35;;;;;;;;;;5059422;28;20029;-86
2021/10/06 02:45:56;;;;;;;23.05;7.28;;;;;;;;;;5059760;28;20072;-86
2021/10/06 02:48:23;;;;;;;20.27;7.35;;;;;;;;;;5053254;28;20097;-86
2021/10/06 02:50:50;;;;;;;23.00;7.75;;;;;;;;;;5039086;28;20351;-87
2021/10/06 02:53:16;;;;;;;16.83;7.40;;;;;;;;;;5039951;28;20028;-86
2021/10/06 02:55:42;;;;;;;18.98;7.50;;;;;;;;;;5049700;28;20112;-86
2021/10/06 02:58:09;;;;;;;21.77;7.50;;;;;;;;;;5059931;28;20028;-86
2021/10/06 03:00:35;;;;;;;21.92;7.88;;;;;;;;;;5058722;28;20033;-85
2021/10/06 03:03:38;;;;;;;21.48;8.45;;;;;;;;;;5040243;28;20032;-87
2021/10/06 03:06:04;;;;;;;17.23;7.38;;;;;;;;;;5039826;28;20029;-86
2021/10/06 03:08:30;;;;;;;17.25;6.95;;;;;;;;;;5038595;28;20030;-86
2021/10/06 03:10:57;;;;;;;18.23;8.07;;;;;;;;;;5059575;28;20029;-86
2021/10/06 03:13:23;;;;;;;23.73;8.02;;;;;;;;;;5058518;28;20025;-85
2021/10/06 03:15:49;;;;;;;29.38;8.57;;;;;;;;;;5059590;28;20053;-85
2021/10/06 03:18:15;;;;;;;21.83;7.72;;;;;;;;;;5059538;28;20031;-87
2021/10/06 03:20:41;;;;;;;27.00;9.10;;;;;;;;;;5058457;28;20021;-86
2021/10/06 03:23:08;;;;;;;25.48;8.75;;;;;;;;;;5058613;28;20060;-87
2021/10/06 03:25:34;;;;;;;27.98;8.82;;;;;;;;;;5058468;28;20032;-87
2021/10/06 03:28:00;;;;;;;26.30;9.43;;;;;;;;;;5059476;28;20040;-85
2021/10/06 03:30:26;;;;;;;26.73;9.20;;;;;;;;;;5058993;28;20418;-85
2021/10/06 03:32:52;;;;;;;40.53;10.82;;;;;;;;;;5059197;28;20025;-85
2021/10/06 03:35:18;;;;;;;21.15;9.18;;;;;;;;;;5058206;28;20379;-85
2021/10/06 03:37:48;;;;;;;29.88;9.73;;;;;;;;;;5059070;28;20419;-85
2021/10/06 03:40:15;;;;;;;20.80;10.10;;;;;;;;;;5052802;28;20036;-85
2021/10/06 03:42:41;;;;;;;31.92;10.68;;;;;;;;;;5058279;28;20031;-83
2021/10/06 03:45:08;;;;;;;28.45;10.32;;;;;;;;;;5058591;28;20028;-83
2021/10/06 03:50:38;;;;;;;30.67;10.88;;;;;;;;;;5058410;28;20076;-86
2021/10/06 03:53:04;;;;;;;24.58;11.07;;;;;;;;;;5058953;28;20028;-86
2021/10/06 03:55:30;;;;;;;25.58;11.27;;;;;;;;;;5038372;28;20074;-86
2021/10/06 03:57:56;;;;;;;37.25;12.25;;;;;;;;;;5037970;28;20135;-86
2021/10/06 04:00:23;;;;;;;35.85;12.02;;;;;;;;;;5044525;28;20037;-86
2021/10/06 04:02:49;;;;;;;55.65;12.52;;;;;;;;;;5057906;28;20033;-85
2021/10/06 04:05:15;;;;;;;36.33;13.25;;;;;;;;;;5058645;28;20025;-86
2021/10/06 04:07:41;;;;;;;28.85;10.48;;;;;;;;;;5058852;28;20049;-85
2021/10/06 04:10:07;;;;;;;66.40;12.60;;;;;;;;;;5052932;28;20032;-85
2021/10/06 04:12:34;;;;;;;41.10;12.18;;;;;;;;;;5038518;28;20057;-85
2021/10/06 04:15:00;;;;;;;26.77;11.25;;;;;;;;;;5038457;28;20198;-86
2021/10/06 04:17:26;;;;;;;29.20;10.35;;;;;;;;;;5050453;28;20104;-85
2021/10/06 04:19:52;;;;;;;32.92;9.90;;;;;;;;;;5055231;28;20021;-82
2021/10/06 04:22:18;;;;;;;27.70;10.10;;;;;;;;;;5057100;28;20055;-87
2021/10/06 04:24:45;;;;;;;38.92;10.40;;;;;;;;;;5057439;28;20029;-86
2021/10/06 04:27:11;;;;;;;24.38;10.40;;;;;;;;;;5040807;28;20029;-87
2021/10/06 04:29:37;;;;;;;32.17;10.52;;;;;;;;;;5057998;28;20426;-86
2021/10/06 04:32:03;;;;;;;22.25;10.07;;;;;;;;;;5057523;28;20218;-87
2021/10/06 04:34:30;;;;;;;23.05;10.23;;;;;;;;;;5053117;28;20041;-87
2021/10/06 04:36:56;;;;;;;31.80;10.48;;;;;;;;;;5038591;28;20022;-86
2021/10/06 04:39:22;;;;;;;27.80;10.73;;;;;;;;;;5047352;28;20409;-85
2021/10/06 04:41:48;;;;;;;21.13;9.93;;;;;;;;;;5038707;28;20025;-85
2021/10/06 04:44:14;;;;;;;23.67;9.40;;;;;;;;;;5020746;28;20033;-86
2021/10/06 04:46:40;;;;;;;33.00;10.35;;;;;;;;;;5037969;28;20416;-86
2021/10/06 04:52:10;;;;;;;31.15;10.23;;;;;;;;;;5037118;28;20115;-85
2021/10/06 04:54:36;;;;;;;31.45;10.15;;;;;;;;;;5050052;28;20109;-86
2021/10/06 04:57:02;;;;;;;22.80;9.38;;;;;;;;;;5057850;28;20021;-88
2021/10/06 04:59:28;;;;;;;22.67;9.15;;;;;;;;;;5056831;28;20403;-88
2021/10/06 05:01:55;;;;;;;19.98;8.73;;;;;;;;;;5036929;28;20112;-88
2021/10/06 05:07:25;;;;;;;24.80;9.63;;;;;;;;;;5037781;28;20036;-87
2021/10/06 05:09:51;;;;;;;26.70;8.77;;;;;;;;;;5037765;28;20021;-84
2021/10/06 05:12:17;;;;;;;25.17;8.45;;;;;;;;;;5053025;28;20076;-85
2021/10/06 05:14:43;;;;;;;22.98;7.68;;;;;;;;;;5047180;28;20032;-85
2021/10/06 05:17:09;;;;;;;25.65;8.88;;;;;;;;;;5036331;28;20030;-89
2021/10/06 05:23:16;;;;;;;19.30;7.93;;;;;;;;;;5037537;28;20068;-87
2021/10/06 05:25:43;;;;;;;22.35;6.72;;;;;;;;;;5048293;28;20049;-86
2021/10/06 05:28:09;;;;;;;15.85;6.68;;;;;;;;;;5051706;28;20354;-86
2021/10/06 05:30:35;;;;;;;26.67;7.40;;;;;;;;;;5049292;28;20033;-86
2021/10/06 05:33:01;;;;;;;19.25;6.95;;;;;;;;;;5039827;28;20101;-83
2021/10/06 05:35:27;;;;;;;18.80;7.32;;;;;;;;;;5037468;28;20025;-84
2021/10/06 05:37:53;;;;;;;18.15;6.60;;;;;;;;;;5037081;28;20072;-84
2021/10/06 05:40:20;;;;;;;22.00;9.50;;;;;;;;;;5039092;28;20140;-85
2021/10/06 05:42:46;;;;;;;14.93;6.90;;;;;;;;;;5038837;28;20037;-84
2021/10/06 05:45:12;;;;;;;23.52;9.00;;;;;;;;;;5037188;28;20075;-84
2021/10/06 05:51:18;;;;;;;16.63;7.28;;;;;;;;;;5056884;28;20330;-87
2021/10/06 05:53:45;;;;;;;20.02;8.15;;;;;;;;;;5037063;28;20022;-86
2021/10/06 05:56:11;;;;;;;19.85;7.00;;;;;;;;;;5037229;28;20327;-85
2021/10/06 05:58:37;;;;;;;24.27;8.55;;;;;;;;;;5037375;28;20044;-84
2021/10/06 06:01:03;;;;;;;14.32;5.97;;;;;;;;;;5051988;28;20033;-85
2021/10/06 06:03:29;;;;;;;18.88;7.63;;;;;;;;;;5058585;28;20127;-84
2021/10/06 06:05:55;;;;;;;18.52;7.90;;;;;;;;;;5048582;28;20025;-84
2021/10/06 06:08:21;;;;;;;19.40;7.43;;;;;;;;;;5041825;28;20399;-84
2021/10/06 06:10:47;;;;;;;23.77;8.35;;;;;;;;;;5052551;28;20040;-84
2021/10/06 06:13:13;;;;;;;17.20;7.53;;;;;;;;;;5057767;28;20059;-84
2021/10/06 06:15:40;;;;;;;19.80;7.55;;;;;;;;;;5059873;28;20095;-84
2021/10/06 06:18:06;;;;;;;22.52;7.30;;;;;;;;;;5060348;28;20031;-83
2021/10/06 06:20:32;;;;;;;21.80;7.10;;;;;;;;;;5059247;28;20359;-83
2021/10/06 06:22:58;;;;;;;21.92;7.63;;;;;;;;;;5058851;28;20109;-84
2021/10/06 06:25:24;;;;;;;25.80;6.22;;;;;;;;;;5057882;28;20033;-84
2021/10/06 06:27:50;;;;;;;17.75;6.78;;;;;;;;;;5060554;28;20099;-84
2021/10/06 06:30:16;;;;;;;22.05;8.40;;;;;;;;;;5051302;28;20063;-85
2021/10/06 06:32:45;;;;;;;13.07;6.15;;;;;;;;;;5048166;28;20059;-84
2021/10/06 06:35:11;;;;;;;22.33;8.05;;;;;;;;;;5043406;28;20033;-83
2021/10/06 06:37:38;;;;;;;15.55;7.38;;;;;;;;;;5054979;28;20028;-84
2021/10/06 06:40:05;;;;;;;19.17;6.90;;;;;;;;;;5060083;28;20048;-84
2021/10/06 06:42:31;;;;;;;13.70;7.07;;;;;;;;;;5059947;28;20112;-84
2021/10/06 06:44:57;;;;;;;14.15;6.53;;;;;;;;;;5057166;28;20112;-84
2021/10/06 06:47:23;;;;;;;16.58;6.68;;;;;;;;;;5059076;28;20064;-84
2021/10/06 06:49:50;;;;;;;19.25;6.97;;;;;;;;;;5060154;28;20037;-84
2021/10/06 06:52:16;;;;;;;23.30;7.15;;;;;;;;;;5059320;28;20029;-83
2021/10/06 06:54:42;;;;;;;23.55;7.22;;;;;;;;;;5059868;28;20057;-83
2021/10/06 06:57:09;;;;;;;17.20;7.80;;;;;;;;;;5075668;28;20031;-84
2021/10/06 06:59:35;;;;;;;13.80;6.32;;;;;;;;;;5079906;28;20054;-84
2021/10/06 07:02:01;;;;;;;15.40;7.22;;;;;;;;;;5079222;28;20104;-82
2021/10/06 07:04:27;;;;;;;22.27;9.02;;;;;;;;;;5077417;28;20028;-82
2021/10/06 07:06:56;;;;;;;12.60;6.97;;;;;;;;;;5069766;28;20022;-88
2021/10/06 07:09:25;;;;;;;15.82;8.57;;;;;;;;;;5041210;28;20029;-82
2021/10/06 07:11:52;;;;;;;19.77;11.25;;;;;;;;;;5048951;28;20132;-82
2021/10/06 07:14:18;;;;;;;18.05;8.25;;;;;;;;;;5052970;28;20112;-82
2021/10/06 07:16:44;;;;;;;17.25;7.47;;;;;;;;;;5059383;28;20025;-82
2021/10/06 07:19:10;;;;;;;18.15;8.45;;;;;;;;;;5046331;28;20037;-82
2021/10/06 07:21:37;;;;;;;14.32;8.57;;;;;;;;;;5047943;28;20025;-82
2021/10/06 07:24:03;;;;;;;19.98;9.85;;;;;;;;;;5038405;28;20087;-83
2021/10/06 07:26:29;;;;;;;19.20;8.80;;;;;;;;;;5046034;28;20057;-83
2021/10/06 07:28:55;;;;;;;13.77;7.32;;;;;;;;;;5059335;28;20356;-82
2021/10/06 07:31:21;;;;;;;18.98;8.95;;;;;;;;;;5051374;28;20036;-82
2021/10/06 07:33:50;;;;;;;20.17;8.55;;;;;;;;;;5056841;28;20103;-82
2021/10/06 07:36:17;;;;;;;16.75;9.05;;;;;;;;;;5058742;28;20029;-83
2021/10/06 07:38:43;;;;;;;18.35;6.78;;;;;;;;;;5057200;28;20116;-83
2021/10/06 07:41:09;;;;;;;17.58;8.63;;;;;;;;;;5058946;28;20025;-84
2021/10/06 07:43:35;;;;;;;17.08;8.38;;;;;;;;;;5059087;28;20036;-87
2021/10/06 07:46:01;;;;;;;16.70;8.45;;;;;;;;;;5059273;28;20032;-87
2021/10/06 07:48:45;;;;;;;21.33;8.27;;;;;;;;;;5059174;28;20032;-89
2021/10/06 07:51:11;;;;;;;17.38;8.20;;;;;;;;;;5058863;28;20449;-86
2021/10/06 07:53:38;;;;;;;18.27;7.90;;;;;;;;;;5059238;28;20052;-85
2021/10/06 07:56:04;;;;;;;16.88;7.78;;;;;;;;;;5058987;28;20017;-86
2021/10/06 07:58:30;;;;;;;20.75;9.20;;;;;;;;;;5057566;28;20037;-85
2021/10/06 08:00:56;;;;;;;17.02;8.35;;;;;;;;;;5058708;28;20433;-82
2021/10/06 08:03:22;;;;;;;19.13;7.80;;;;;;;;;;5057256;28;20025;-82
2021/10/06 08:05:48;;;;;;;18.60;8.15;;;;;;;;;;5058450;28;20346;-82
2021/10/06 08:08:15;;;;;;;18.52;7.95;;;;;;;;;;5057366;28;20025;-82
2021/10/06 08:10:41;;;;;;;14.82;7.68;;;;;;;;;;5067707;28;20342;-82
2021/10/06 08:13:07;;;;;;;12.65;7.30;;;;;;;;;;5065717;28;20311;-82
2021/10/06 08:15:34;;;;;;;15.05;7.47;;;;;;;;;;5069233;28;20021;-81
2021/10/06 08:18:00;;;;;;;18.67;7.57;;;;;;;;;;5069119;28;20486;-82
2021/10/06 08:20:32;;;;;;;13.82;7.93;;;;;;;;;;5076497;28;20032;-82
2021/10/06 08:22:58;;;;;;;20.10;7.45;;;;;;;;;;5055606;28;20025;-82
2021/10/06 08:25:24;;;;;;;15.30;8.50;;;;;;;;;;5037720;28;20124;-82
2021/10/06 08:27:52;;;;;;;14.60;7.93;;;;;;;;;;5036972;28;20462;-82
2021/10/06 08:30:18;;;;;;;13.93;8.00;;;;;;;;;;5037746;28;20412;-82
2021/10/06 08:32:44;;;;;;;17.13;8.05;;;;;;;;;;5037647;28;20017;-82
2021/10/06 08:35:11;;;;;;;16.05;8.38;;;;;;;;;;5037886;28;20029;-82
2021/10/06 08:37:37;;;;;;;17.33;8.27;;;;;;;;;;5053006;28;20116;-82
2021/10/06 08:40:04;;;;;;;14.52;9.05;;;;;;;;;;5052708;28;20435;-82
2021/10/06 08:42:31;;;;;;;17.83;6.80;;;;;;;;;;5052714;28;20032;-82
2021/10/06 08:44:59;;;;;;;18.10;9.13;;;;;;;;;;5037732;28;20013;-82
2021/10/06 08:47:25;;;;;;;16.63;7.50;;;;;;;;;;5053278;28;20366;-82
2021/10/06 08:49:51;;;;;;;15.68;8.38;;;;;;;;;;5037788;28;20053;-82
2021/10/06 08:52:17;;;;;;;16.27;7.63;;;;;;;;;;5037395;28;20025;-82
2021/10/06 08:54:43;;;;;;;18.67;9.63;;;;;;;;;;5037465;28;20049;-82
2021/10/06 08:57:16;;;;;;;13.45;7.72;;;;;;;;;;5037430;28;20025;-82
2021/10/06 08:59:45;;;;;;;13.88;8.13;;;;;;;;;;5037401;28;20104;-82
2021/10/06 09:02:12;;;;;;;29.58;9.52;;;;;;;;;;5037641;28;20037;-82
2021/10/06 09:04:38;;;;;;;17.65;8.65;;;;;;;;;;5037495;28;20025;-82
2021/10/06 09:07:05;;;;;;;18.10;8.98;;;;;;;;;;5037171;28;20067;-82
2021/10/06 09:09:34;;;;;;;15.68;9.93;;;;;;;;;;5037135;28;20034;-82
2021/10/06 09:12:02;;;;;;;20.20;9.48;;;;;;;;;;5052490;28;20033;-81
2021/10/06 09:14:30;;;;;;;24.15;10.70;;;;;;;;;;5037442;28;20021;-82
2021/10/06 09:17:15;;;;;;;19.25;9.35;;;;;;;;;;5052739;28;20084;-82
2021/10/06 09:19:43;;;;;;;19.23;11.05;;;;;;;;;;5052309;28;20450;-82
2021/10/06 09:22:17;;;;;;;18.60;10.70;;;;;;;;;;5037286;28;20030;-82
2021/10/06 09:24:51;;;;;;;21.02;12.05;;;;;;;;;;5036824;28;20416;-82
2021/10/06 09:27:28;;;;;;;49.08;20.85;;;;;;;;;;5037114;28;20036;-82
2021/10/06 09:29:59;;;;;;;40.80;17.70;;;;;;;;;;5054051;28;20024;-82
2021/10/06 09:32:25;;;;;;;42.60;17.77;;;;;;;;;;5076701;28;20024;-82
2021/10/06 09:35:02;;;;;;;31.40;17.90;;;;;;;;;;5058538;28;20440;-82
2021/10/06 09:37:28;;;;;;;27.38;15.18;;;;;;;;;;5058394;28;20017;-82
2021/10/06 09:39:55;;;;;;;31.55;18.52;;;;;;;;;;5072973;28;20060;-82
2021/10/06 09:42:21;;;;;;;35.58;17.10;;;;;;;;;;5080825;28;20460;-82
2021/10/06 09:44:54;;;;;;;22.52;14.65;;;;;;;;;;5080775;28;20024;-82
2021/10/06 09:47:21;;;;;;;26.90;14.38;;;;;;;;;;5080634;28;20035;-82
2021/10/06 09:49:52;;;;;;;27.83;13.80;;;;;;;;;;5080632;28;20029;-82
2021/10/06 09:52:29;;;;;;;22.90;14.02;;;;;;;;;;5080849;28;20055;-82
2021/10/06 09:54:59;;;;;;;25.27;13.48;;;;;;;;;;5080708;28;20032;-82
2021/10/06 09:57:28;;;;;;;23.50;12.70;;;;;;;;;;5080673;28;20100;-82
2021/10/06 09:59:54;;;;;;;24.02;12.55;;;;;;;;;;5059776;28;20104;-82
2021/10/06 10:02:21;;;;;;;20.77;14.07;;;;;;;;;;5040499;28;20037;-82
2021/10/06 10:04:47;;;;;;;39.90;13.23;;;;;;;;;;5040285;28;20031;-81
2021/10/06 10:07:14;;;;;;;20.90;12.43;;;;;;;;;;5055606;28;20025;-81
2021/10/06 10:09:41;;;;;;;21.95;12.18;;;;;;;;;;5040200;28;20029;-83
2021/10/06 10:12:08;;;;;;;32.10;12.43;;;;;;;;;;5040483;28;20029;-83
2021/10/06 10:14:34;;;;;;;28.15;13.65;;;;;;;;;;5055674;28;20049;-82
2021/10/06 10:17:00;;;;;;;40.83;18.60;;;;;;;;;;5055378;28;20120;-83
2021/10/06 10:19:30;;;;;;;37.92;17.38;;;;;;;;;;5055625;28;20064;-82
2021/10/06 10:21:57;;;;;;;36.28;16.55;;;;;;;;;;5040570;28;20025;-83
2021/10/06 10:24:24;;;;;;;31.33;17.10;;;;;;;;;;5040228;28;20493;-83
2021/10/06 10:27:16;;;;;;;34.33;15.68;;;;;;;;;;5040210;28;20161;-83
2021/10/06 10:29:45;;;;;;;31.10;15.63;;;;;;;;;;5039082;28;20037;-83
2021/10/06 10:32:11;;;;;;;30.52;16.70;;;;;;;;;;5039910;28;20331;-83
2021/10/06 10:37:47;;;;;;;24.67;12.50;;;;;;;;;;5039845;28;20369;-83
2021/10/06 10:40:34;;;;;;;21.33;11.73;;;;;;;;;;5039633;28;20045;-83
2021/10/06 10:43:13;;;;;;;22.10;12.82;;;;;;;;;;5040168;28;20109;-84
2021/10/06 10:45:41;;;;;;;22.95;11.75;;;;;;;;;;5039841;28;20404;-83
2021/10/06 10:51:11;;;;;;;18.85;10.57;;;;;;;;;;5038700;28;20556;-83
2021/10/06 10:53:53;;;;;;;19.92;10.32;;;;;;;;;;5055270;28;20029;-83
2021/10/06 10:56:26;;;;;;;17.65;11.70;;;;;;;;;;5055235;28;20028;-83
2021/10/06 10:59:12;;;;;;;14.35;9.07;;;;;;;;;;5041148;28;20056;-83
2021/10/06 11:01:43;;;;;;;15.55;9.02;;;;;;;;;;5059427;28;20025;-83
2021/10/06 11:04:11;;;;;;;21.95;10.15;;;;;;;;;;5059443;28;20025;-83
2021/10/06 11:06:38;;;;;;;16.00;8.88;;;;;;;;;;5049287;28;20030;-83
2021/10/06 11:09:22;;;;;;;18.38;9.90;;;;;;;;;;5039265;28;20079;-83
2021/10/06 11:11:49;;;;;;;19.10;8.77;;;;;;;;;;5039285;28;20040;-83
2021/10/06 11:14:21;;;;;;;19.05;9.48;;;;;;;;;;5039654;28;20037;-83
2021/10/06 11:17:06;;;;;;;20.63;9.68;;;;;;;;;;5038253;28;20052;-83
2021/10/06 11:19:57;;;;;;;18.42;10.15;;;;;;;;;;5039261;28;20315;-83
2021/10/06 11:22:23;;;;;;;19.50;9.10;;;;;;;;;;5038259;28;20029;-83
2021/10/06 11:24:52;;;;;;;14.52;8.88;;;;;;;;;;5039243;28;20053;-83
2021/10/06 11:27:19;;;;;;;15.27;8.38;;;;;;;;;;5039219;28;20029;-83
2021/10/06 11:29:45;;;;;;;15.95;9.35;;;;;;;;;;5039030;28;20029;-83
2021/10/06 11:32:12;;;;;;;15.07;8.65;;;;;;;;;;5039105;28;20026;-83
2021/10/06 11:34:45;;;;;;;15.15;9.50;;;;;;;;;;5038987;28;20040;-83
2021/10/06 11:37:18;;;;;;;22.55;9.65;;;;;;;;;;5038680;28;20026;-83
2021/10/06 11:39:44;;;;;;;21.10;10.70;;;;;;;;;;5038650;28;20094;-83
2021/10/06 11:42:10;;;;;;;17.63;9.52;;;;;;;;;;5038643;28;20033;-83
2021/10/06 11:44:36;;;;;;;21.35;9.75;;;;;;;;;;5038838;28;20301;-83
2021/10/06 11:47:05;;;;;;;20.52;9.10;;;;;;;;;;5038881;28;20488;-83
2021/10/06 11:49:33;;;;;;;22.40;9.85;;;;;;;;;;5038709;28;20029;-83
2021/10/06 11:51:59;;;;;;;17.92;8.77;;;;;;;;;;5038782;28;20029;-83
2021/10/06 11:54:26;;;;;;;17.98;8.85;;;;;;;;;;5038717;28;20469;-83
2021/10/06 11:56:53;;;;;;;18.40;9.63;;;;;;;;;;5038525;28;20446;-83
2021/10/06 11:59:20;;;;;;;25.55;9.23;;;;;;;;;;5038540;28;20060;-80
2021/10/06 12:01:54;;;;;;;16.55;8.82;;;;;;;;;;5037137;28;20029;-81
2021/10/06 12:04:21;;;;;;;12.93;7.65;;;;;;;;;;5038057;28;20029;-80
2021/10/06 12:06:50;;;;;;;17.55;9.40;;;;;;;;;;5038228;28;20025;-80
2021/10/06 12:09:17;;;;;;;17.45;8.98;;;;;;;;;;5037855;28;20037;-81
2021/10/06 12:11:45;;;;;;;18.48;8.88;;;;;;;;;;5038051;28;20343;-81
2021/10/06 12:14:17;;;;;;;19.20;8.70;;;;;;;;;;5037149;28;20025;-81
2021/10/06 12:16:43;;;;;;;17.08;9.07;;;;;;;;;;5038018;28;20446;-82
2021/10/06 12:19:09;;;;;;;15.75;8.23;;;;;;;;;;5038009;28;20026;-82
2021/10/06 12:21:35;;;;;;;14.30;7.57;;;;;;;;;;5040643;28;20028;-81
2021/10/06 12:24:03;;;;;;;18.52;8.25;;;;;;;;;;5041904;28;20032;-81
2021/10/06 12:26:33;;;;;;;14.45;7.65;;;;;;;;;;5038246;28;20071;-81
2021/10/06 12:29:04;;;;;;;18.48;8.45;;;;;;;;;;5037793;28;20021;-81
2021/10/06 12:31:32;;;;;;;15.43;7.72;;;;;;;;;;5037533;28;20032;-81
2021/10/06 12:34:05;;;;;;;16.10;7.97;;;;;;;;;;5042142;28;20312;-80
2021/10/06 12:36:31;;;;;;;14.60;7.63;;;;;;;;;;5058161;28;20021;-80
2021/10/06 12:38:58;;;;;;;16.83;8.82;;;;;;;;;;5066783;28;20052;-80
2021/10/06 12:41:25;;;;;;;15.02;7.45;;;;;;;;;;5063939;28;20028;-80
2021/10/06 12:43:52;;;;;;;11.50;7.18;;;;;;;;;;5074023;28;20036;-80
2021/10/06 12:46:25;;;;;;;17.17;7.53;;;;;;;;;;5040921;28;20040;-85
2021/10/06 12:48:53;;;;;;;14.02;7.85;;;;;;;;;;5019808;28;20109;-81
2021/10/06 12:51:24;;;;;;;14.90;6.78;;;;;;;;;;5051557;28;20104;-81
2021/10/06 12:53:50;;;;;;;30.55;8.73;;;;;;;;;;5057168;28;20405;-81
2021/10/06 12:56:27;;;;;;;11.82;7.45;;;;;;;;;;5057386;28;20105;-81
2021/10/06 12:58:54;;;;;;;19.27;6.60;;;;;;;;;;5055957;28;20121;-81
2021/10/06 13:01:20;;;;;;;28.00;12.40;;;;;;;;;;5057481;28;20307;-82
2021/10/06 13:03:46;;;;;;;12.13;6.40;;;;;;;;;;5055922;28;20404;-80
2021/10/06 13:06:12;;;;;;;15.25;9.93;;;;;;;;;;5057268;28;20071;-80
2021/10/06 13:08:38;;;;;;;10.93;6.60;;;;;;;;;;5056999;28;20323;-82
2021/10/06 13:11:04;;;;;;;14.70;8.43;;;;;;;;;;5048925;28;20029;-81
2021/10/06 13:13:30;;;;;;;19.40;7.05;;;;;;;;;;5036477;28;20099;-81
2021/10/06 13:15:56;;;;;;;17.70;8.63;;;;;;;;;;5036984;28;20021;-81
2021/10/06 13:18:22;;;;;;;15.18;7.35;;;;;;;;;;5037075;28;20025;-81
2021/10/06 13:20:49;;;;;;;16.40;8.18;;;;;;;;;;5037775;28;20025;-80
2021/10/06 13:23:15;;;;;;;12.90;7.57;;;;;;;;;;5036041;28;20033;-81
2021/10/06 13:25:41;;;;;;;14.65;7.90;;;;;;;;;;5036875;28;20071;-81
2021/10/06 13:28:07;;;;;;;20.13;7.85;;;;;;;;;;5035705;28;20037;-81
2021/10/06 13:30:34;;;;;;;18.58;7.20;;;;;;;;;;5050933;28;20029;-81
2021/10/06 13:33:00;;;;;;;15.82;7.05;;;;;;;;;;5051859;28;20100;-79
2021/10/06 13:35:26;;;;;;;15.13;7.00;;;;;;;;;;5056750;28;20021;-82
2021/10/06 13:37:52;;;;;;;16.35;8.60;;;;;;;;;;5056739;28;20027;-82
2021/10/06 13:40:18;;;;;;;18.25;7.63;;;;;;;;;;5056580;28;20099;-82
2021/10/06 13:42:44;;;;;;;21.77;8.10;;;;;;;;;;5043686;28;20045;-82
2021/10/06 13:45:10;;;;;;;18.08;7.60;;;;;;;;;;5050366;28;20033;-82
2021/10/06 13:47:36;;;;;;;22.90;8.73;;;;;;;;;;5037093;28;20028;-82
2021/10/06 13:50:03;;;;;;;17.25;7.53;;;;;;;;;;5037080;28;20022;-82
2021/10/06 13:52:29;;;;;;;22.23;7.03;;;;;;;;;;5036891;28;20380;-81
2021/10/06 13:54:55;;;;;;;23.92;9.38;;;;;;;;;;5037096;28;20021;-82
2021/10/06 13:57:21;;;;;;;18.83;8.55;;;;;;;;;;5036914;28;20025;-82
2021/10/06 13:59:47;;;;;;;21.60;8.82;;;;;;;;;;5035629;28;20025;-82
2021/10/06 14:02:14;;;;;;;23.77;9.43;;;;;;;;;;5036602;28;20028;-82
2021/10/06 14:04:40;;;;;;;27.92;10.25;;;;;;;;;;5036791;28;20045;-82
2021/10/06 14:07:06;;;;;;;25.00;9.45;;;;;;;;;;5035685;28;20036;-82
2021/10/06 14:09:32;;;;;;;24.65;10.45;;;;;;;;;;5036646;28;20056;-82
2021/10/06 14:11:58;;;;;;;34.20;10.02;;;;;;;;;;5036490;28;20067;-82
2021/10/06 14:14:24;;;;;;;21.92;9.13;;;;;;;;;;5036592;28;20041;-81
2021/10/06 14:16:50;;;;;;;24.40;8.82;;;;;;;;;;5036585;28;20022;-82
2021/10/06 14:19:16;;;;;;;23.98;10.15;;;;;;;;;;5036620;28;20022;-85
2021/10/06 14:21:42;;;;;;;23.23;9.32;;;;;;;;;;5035575;28;20033;-82
2021/10/06 14:24:08;;;;;;;28.48;8.07;;;;;;;;;;5037880;28;20030;-82
2021/10/06 14:26:34;;;;;;;33.75;10.27;;;;;;;;;;5040234;28;20030;-81
2021/10/06 14:29:01;;;;;;;25.33;8.63;;;;;;;;;;5040204;28;20513;-82
2021/10/06 14:31:28;;;;;;;22.27;7.90;;;;;;;;;;5039994;28;20152;-82
2021/10/06 14:33:55;;;;;;;29.73;8.25;;;;;;;;;;5039963;28;20013;-82
2021/10/06 14:36:22;;;;;;;22.98;7.72;;;;;;;;;;5040052;28;20026;-82
2021/10/06 14:38:48;;;;;;;25.70;8.65;;;;;;;;;;5039567;28;20041;-82
2021/10/06 14:41:14;;;;;;;29.58;9.10;;;;;;;;;;5038488;28;20029;-82
2021/10/06 14:43:40;;;;;;;19.98;9.15;;;;;;;;;;5038828;28;20063;-82
2021/10/06 14:46:06;;;;;;;27.65;9.32;;;;;;;;;;5038783;28;20033;-82
2021/10/06 14:48:32;;;;;;;22.52;10.30;;;;;;;;;;5038766;28;20032;-82
2021/10/06 14:51:03;;;;;;;29.95;9.38;;;;;;;;;;5041656;28;20021;-81